Kansas City, Kansas
Current Conditions -  °F | °C
As of 7:54 PM on Saturday 25 Oct 2014 (Local Time) from KMKC Reporting Station
Clear Clear  
Wind Chill: 21°   Ceiling: Unl
Heat Index: 21°   Visibility: 10mi
Dew Point: 14°   Wind: 0mph
Humidity: 65%   Direction: NA
Pressure: 30.01"   Gusts: NA
Location:  39.11°N, 94.63°W
Report Text: KMKC 260054Z 00000KT 10SM CLR 21/14 A3001 RMK AO2 SLP158 T02060139
Loading
Personal Weather Stations






























Interactive Weather Map
Tropical Storm Tracking
New forecast layout! Learn more

10-Day Weather Forecast

Advertisements
Track Severe Weather on mobile